• Join FlightAware (Why Join?)
  • Login
  • US Flag 
06:54PM EDT


 

Airport Tracker/Info


-or-


 

Live Flight TrackerFlight Track Log ✈ SWA35 ✈ 08-May-2013 ✈ KDEN - KOKC

Flight Track Log - Related Links

Times and Time Zones

All times are in EDT time to prevent confusion due to time zone crossing. See the SWA35 flight status page for this flight to view local times or setup timezone preferences in your user account.

Time Position Orientation Groundspeed Altitude Reporting Facility
EDT Latitude Longitude Course Direction KTS MPH feet Rate Location/Type
12:55PM 39.8167 -104.6500 136° Southeast 178 205 6,500  Level Denver TRACON
12:56PM 39.8058 -104.6364 136° Southeast 174 200 7,000 2,160 Climbing Denver Center
12:57PM 39.7589 -104.5631 130° Southeast 247 284 9,400 1,440 Climbing Denver Center
12:58PM 39.7392 -104.4578 104° East 300 345 10,000 1,080 Climbing Denver Center
12:59PM 39.7153 -104.3469 106° East 318 366 11,700 2,700 Climbing Denver Center
01:00PM 39.6911 -104.2228 104° East 329 379 15,700 3,180 Climbing Denver Center
01:01PM 39.6742 -104.0975 100° East 353 406 18,300 2,880 Climbing Denver Center
01:02PM 39.6536 -103.9531 100° East 377 434 21,700 2,760 Climbing Denver Center
01:03PM 39.6067 -103.8331 117° Southeast 376 433 24,100 2,160 Climbing Denver Center
01:04PM 39.5692 -103.7106 112° Southeast 381 438 26,200 2,340 Climbing Denver Center
01:05PM 39.5297 -103.5597 109° East 393 452 29,000 1,860 Climbing Denver Center
01:06PM 39.4936 -103.4253 109° East 412 474 30,100 1,440 Climbing Denver Center
01:07PM 39.4506 -103.2611 109° East 429 494 32,000 1,560 Climbing Denver Center
01:08PM 39.4131 -103.1200 109° East 432 497 33,400 1,440 Climbing Denver Center
01:09PM 39.3675 -102.9497 109° East 447 514 35,000 1,320 Climbing Denver Center
01:10PM 39.3278 -102.8025 109° East 452 520 36,200 1,200 Climbing Denver Center
01:11PM 39.2811 -102.6292 109° East 453 521 37,500 1,140 Climbing Denver Center
01:12PM 39.2403 -102.4811 110° East 455 524 38,600 720 Climbing Denver Center
01:13PM 39.2000 -102.3353 110° East 451 519 39,000 180 Climbing Denver Center
01:14PM 39.1533 -102.1636 109° East 454 522 39,000  Level Denver Center
01:15PM 39.0944 -102.0328 120° Southeast 449 517 39,000  Level Denver Center
01:16PM 38.9789 -101.9419 149° Southeast 436 502 39,000  Level Denver Center
01:17PM 38.8803 -101.8614 148° Southeast 438 504 39,000  Level Denver Center
01:18PM 38.7636 -101.7692 148° Southeast 440 506 39,000  Level Denver Center
01:19PM 38.6625 -101.6864 147° Southeast 449 517 39,000  Level Denver Center
01:21PM 38.5422 -101.5944 149° Southeast 450 518 39,000  Level Denver Center
01:22PM 38.4397 -101.5125 148° Southeast 453 521 39,000  Level Denver Center
01:23PM 38.3189 -101.4203 149° Southeast 455 524 39,000  Level Denver Center
01:24PM 38.2158 -101.3389 148° Southeast 455 524 39,000  Level Denver Center
01:25PM 38.0958 -101.2453 148° Southeast 455 524 39,000  Level Denver Center
01:26PM 37.9922 -101.1661 149° Southeast 455 524 39,000  Level Denver Center
01:27PM 37.8714 -101.0728 149° Southeast 456 525 39,000  Level Denver Center
01:27PM 37.8028 -101.0197 149° Southeast 455 524 39,000  Level Kansas City Center
01:28PM 37.7056 -100.9456 149° Southeast 456 525 39,000  Level Kansas City Center
01:29PM 37.5761 -100.8444 148° Southeast 456 525 39,000  Level Kansas City Center
01:30PM 37.4644 -100.7594 149° Southeast 457 526 39,000  Level Kansas City Center
01:32PM 37.3589 -100.6792 149° Southeast 461 531 39,000  Level Kansas City Center
01:33PM 37.2361 -100.5856 149° Southeast 463 533 39,000  Level Kansas City Center
01:34PM 37.1306 -100.5058 149° Southeast 464 534 39,000  Level Kansas City Center
01:35PM 37.0056 -100.4119 149° Southeast 467 537 39,000  Level Kansas City Center
01:36PM 36.8978 -100.3322 149° Southeast 468 539 39,000 -120 Level Kansas City Center
01:37PM 36.7906 -100.2539 150° Southeast 468 539 38,800 -600 Descending Kansas City Center
01:38PM 36.6669 -100.1597 149° Southeast 460 529 37,800 -1,020 Descending Kansas City Center
01:39PM 36.5592 -100.0800 149° Southeast 452 520 36,800 -960 Descending Kansas City Center
01:40PM 36.4506 -100.0008 150° Southeast 452 520 35,900 -960 Descending Kansas City Center
01:41PM 36.3411 -99.9217 150° Southeast 454 522 34,900 -960 Descending Kansas City Center
01:42PM 36.2322 -99.8411 149° Southeast 455 524 34,000 -1,020 Descending Kansas City Center
01:43PM 36.1000 -99.7447 149° Southeast 458 527 32,800 -1,020 Descending Kansas City Center
01:44PM 35.9889 -99.6639 150° Southeast 464 534 31,900 -960 Descending Kansas City Center
01:45PM 35.8775 -99.5828 149° Southeast 467 537 30,900 -960 Descending Kansas City Center
01:46PM 35.7647 -99.5008 149° Southeast 472 543 30,000 -1,020 Descending Kansas City Center
01:47PM 35.7014 -99.3578 119° Southeast 497 572 28,900 -2,340 Descending Kansas City Center
01:48PM 35.6644 -99.1628 103° East 494 568 25,200 -2,340 Descending Kansas City Center
01:49PM 35.6483 -99.0100 97° East 466 536 24,000 -2,220 Descending Fort Worth Center
01:50PM 35.6397 -98.8617 94° East 455 524 20,600 -2,520 Descending Fort Worth Center
01:51PM 35.6331 -98.7161 93° East 444 511 19,000 -1,200 Descending Fort Worth Center
01:52PM 35.6258 -98.5908 94° East 402 463 18,200 -1,800 Descending Fort Worth Center
01:53PM 35.6206 -98.4861 94° East 365 420 16,000 -2,220 Descending Fort Worth Center
01:53PM 35.6206 -98.4681 90° East 374 430 16,000 -2,880 Level Fort Worth Center
01:54PM 35.6172 -98.3967 93° East 369 425 14,000 -2,940 Descending Fort Worth Center
01:54PM 35.6175 -98.3403 90° East 366 421 13,100 -2,160 Descending Fort Worth Center
01:55PM 35.6142 -98.2433 92° East 367 422 11,400 -2,040 Descending Fort Worth Center
01:55PM 35.6122 -98.2178 95° East 366 421 11,100 -660 Descending Fort Worth Center
01:55PM 35.6103 -98.1794 94° East 358 412 11,000 -720 Descending Fort Worth Center
01:56PM 35.6025 -98.1053 97° East 353 406 10,400 -1,320 Descending Fort Worth Center
01:56PM 35.5817 -98.0744 130° Southeast 294 338 9,700 -1,680 Descending Fort Worth Center
01:57PM 35.5569 -97.9953 111° Southeast 290 334 8,500 -1,260 Descending Fort Worth Center
01:58PM 35.5367 -97.9239 109° East 300 345 7,600 -1,380 Descending Fort Worth Center
01:58PM 35.5242 -97.8881 113° Southeast 285 328 7,000 -2,040 Descending Fort Worth Center
01:59PM 35.5097 -97.8369 109° East 281 323 5,600 -1,560 Descending Fort Worth Center
02:00PM 35.4850 -97.7628 112° Southeast 259 298 4,400 -1,200 Descending Fort Worth Center
02:01PM 35.4600 -97.6992 116° Southeast 230 265 3,300 -1,140 Descending Fort Worth Center
02:01PM 35.4497 -97.6786 122° Southeast 175 201 2,900 -1,140 Descending Fort Worth Center
02:02PM 35.4331 -97.6531 129° Southeast 196 226 2,200 -1,140 Descending Fort Worth Center
02:02PM 35.4228 -97.6403 135° Southeast 133 153 1,800 -840 Descending Fort Worth Center
02:03PM 35.4061 -97.6225 139° Southeast 161 185 1,400 -360 Descending Fort Worth Center
02:04PM 35.3769 -97.5739 126° Southeast 155 178 1,200 -240 Descending Fort Worth Center
02:09PM 35.3931 -97.6008 305° West  Level Estimated
02:16PM 35.3931 -97.6008 305° West  Level Estimated
02:17PM 35.3931 -97.6008 305° West  Level Estimated